createdAt,value
2018-12-04T00:00:09.010Z,0.60
2018-12-04T00:02:38.282Z,0.70
2018-12-04T00:05:07.643Z,1.35
2018-12-04T00:07:36.828Z,1.80
2018-12-04T00:10:08.379Z,2.37
2018-12-04T00:12:37.551Z,1.45
2018-12-04T00:15:07.012Z,1.20
2018-12-04T00:17:36.199Z,3.08
2018-12-04T00:20:06.022Z,2.10
2018-12-04T00:22:35.262Z,1.32
2018-12-04T00:25:05.042Z,2.45
2018-12-04T00:27:34.270Z,2.90
2018-12-04T00:30:03.715Z,1.92
2018-12-04T00:32:32.911Z,1.60
2018-12-04T00:35:02.197Z,1.50
2018-12-04T00:37:31.457Z,2.15
2018-12-04T00:40:00.764Z,2.55
2018-12-04T00:42:30.083Z,1.77
2018-12-04T00:44:59.375Z,2.45
2018-12-04T00:47:28.595Z,1.65
2018-12-04T00:49:57.771Z,2.33
2018-12-04T00:52:26.960Z,1.40
2018-12-04T00:54:56.157Z,1.37
2018-12-04T00:57:25.457Z,2.02
2018-12-04T00:59:54.662Z,1.40
2018-12-04T01:02:24.206Z,1.35
2018-12-04T01:04:53.486Z,2.17
2018-12-04T01:07:22.705Z,3.17
2018-12-04T01:09:51.887Z,1.00
2018-12-04T01:12:21.111Z,1.90
2018-12-04T01:14:50.378Z,2.15
2018-12-04T01:17:19.698Z,1.05
2018-12-04T01:19:48.986Z,2.12
2018-12-04T01:22:18.159Z,2.05
2018-12-04T01:24:47.453Z,1.47
2018-12-04T01:27:16.628Z,0.80
2018-12-04T01:29:45.890Z,0.95
2018-12-04T01:32:15.196Z,1.17
2018-12-04T01:34:44.475Z,1.32
2018-12-04T01:37:13.783Z,1.25
2018-12-04T01:39:43.050Z,1.30
2018-12-04T01:42:12.255Z,1.12
2018-12-04T01:44:41.464Z,0.68
2018-12-04T01:47:10.682Z,1.37
2018-12-04T01:49:39.958Z,1.80
2018-12-04T01:52:09.150Z,1.52
2018-12-04T01:54:38.382Z,1.12
2018-12-04T01:57:07.572Z,1.02
2018-12-04T01:59:36.779Z,0.90
2018-12-04T02:02:06.159Z,1.30
2018-12-04T02:04:35.379Z,2.30
2018-12-04T02:07:04.875Z,2.08
2018-12-04T02:09:34.210Z,2.05
2018-12-04T02:12:03.560Z,1.50
2018-12-04T02:14:32.848Z,1.35
2018-12-04T02:17:02.175Z,1.75
2018-12-04T02:19:31.503Z,1.17
2018-12-04T02:22:00.853Z,3.15
2018-12-04T02:24:30.159Z,1.67
2018-12-04T02:26:59.353Z,1.10
2018-12-04T02:29:28.582Z,2.17
2018-12-04T02:31:58.014Z,1.30
2018-12-04T02:34:27.250Z,2.33
2018-12-04T02:36:56.470Z,1.82
2018-12-04T02:39:25.720Z,0.65
2018-12-04T02:41:55.255Z,1.45
2018-12-04T02:44:24.506Z,3.27
2018-12-04T02:46:53.805Z,2.90
2018-12-04T02:49:23.126Z,3.50
2018-12-04T02:51:52.348Z,1.82
2018-12-04T02:54:21.674Z,1.15
2018-12-04T02:56:51.199Z,2.37
2018-12-04T02:59:20.464Z,1.72
2018-12-04T03:01:49.759Z,1.62
2018-12-04T03:04:19.076Z,2.30
2018-12-04T03:06:48.465Z,2.35
2018-12-04T03:09:17.694Z,2.08
2018-12-04T03:11:46.896Z,1.90
2018-12-04T03:14:16.166Z,3.75
2018-12-04T03:16:45.474Z,2.80
2018-12-04T03:19:14.695Z,2.02
2018-12-04T03:21:43.956Z,1.87
2018-12-04T03:24:13.325Z,2.17
2018-12-04T03:26:42.506Z,1.98
2018-12-04T03:29:11.723Z,1.95
2018-12-04T03:31:40.904Z,1.40
2018-12-04T03:34:10.325Z,1.32
2018-12-04T03:36:39.511Z,2.52
2018-12-04T03:39:09.575Z,1.98
2018-12-04T03:41:39.485Z,1.27
2018-12-04T03:44:08.723Z,2.90
2018-12-04T03:46:37.962Z,3.22
2018-12-04T03:49:07.289Z,3.30
2018-12-04T03:51:36.727Z,0.88
2018-12-04T03:54:06.129Z,1.40
2018-12-04T03:56:35.389Z,1.75
2018-12-04T03:59:04.812Z,1.80
2018-12-04T04:01:34.089Z,0.90
2018-12-04T04:04:03.385Z,1.37
2018-12-04T04:06:32.698Z,2.65
2018-12-04T04:09:01.959Z,3.87
2018-12-04T04:11:31.166Z,0.98
2018-12-04T04:14:00.386Z,3.37
2018-12-04T04:16:29.663Z,5.10
2018-12-04T04:18:59.098Z,1.40
2018-12-04T04:21:28.331Z,1.05
2018-12-04T04:23:57.550Z,1.25
2018-12-04T04:26:26.727Z,1.12
2018-12-04T04:28:56.012Z,1.40
2018-12-04T04:31:25.334Z,1.60
2018-12-04T04:33:54.646Z,2.58
2018-12-04T04:36:23.863Z,2.05
2018-12-04T04:38:53.188Z,4.60
2018-12-04T04:41:22.384Z,2.40
2018-12-04T04:43:51.755Z,1.50
2018-12-04T04:46:20.955Z,1.25
2018-12-04T04:48:50.239Z,2.17
2018-12-04T04:51:19.459Z,1.87
2018-12-04T04:53:48.677Z,0.90
2018-12-04T04:56:18.123Z,0.85
2018-12-04T04:58:47.401Z,2.87
2018-12-04T05:01:16.782Z,3.37
2018-12-04T05:03:46.044Z,1.10
2018-12-04T05:06:15.255Z,0.62
2018-12-04T05:08:44.448Z,1.10
2018-12-04T05:11:13.756Z,0.80
2018-12-04T05:13:43.076Z,1.22
2018-12-04T05:16:12.533Z,0.75
2018-12-04T05:18:42.222Z,0.40
2018-12-04T05:21:11.554Z,1.00
2018-12-04T05:23:40.752Z,0.33
2018-12-04T05:26:09.999Z,0.35
2018-12-04T05:28:39.200Z,0.37
2018-12-04T05:31:08.490Z,0.55
2018-12-04T05:33:37.687Z,1.60
2018-12-04T05:36:06.989Z,0.80
2018-12-04T05:38:36.254Z,1.10
2018-12-04T05:41:05.454Z,0.90
2018-12-04T05:43:34.635Z,1.05
2018-12-04T05:46:03.951Z,1.17
2018-12-04T05:48:33.138Z,1.12
2018-12-04T05:51:02.354Z,1.02
2018-12-04T05:53:36.698Z,1.57
2018-12-04T05:56:09.820Z,0.53
2018-12-04T05:58:39.003Z,2.75
2018-12-04T06:01:08.211Z,0.55
2018-12-04T06:03:37.463Z,1.05
2018-12-04T06:06:06.654Z,1.32
2018-12-04T06:08:35.890Z,0.60
2018-12-04T06:11:05.207Z,0.82
2018-12-04T06:13:34.383Z,0.50
2018-12-04T06:16:03.630Z,0.50
2018-12-04T06:18:33.014Z,0.50
2018-12-04T06:21:02.268Z,2.10
2018-12-04T06:23:31.510Z,0.40
2018-12-04T06:26:00.807Z,0.53
2018-12-04T06:28:29.979Z,0.82
2018-12-04T06:30:59.259Z,1.72
2018-12-04T06:33:28.582Z,3.58
2018-12-04T06:35:57.768Z,1.45
2018-12-04T06:38:27.035Z,1.40
2018-12-04T06:41:02.907Z,1.90
2018-12-04T06:43:32.135Z,1.25
2018-12-04T06:46:01.587Z,3.37
2018-12-04T06:48:30.756Z,1.27
2018-12-04T06:51:00.002Z,2.50
2018-12-04T06:53:29.169Z,2.15
2018-12-04T06:55:58.353Z,3.12
2018-12-04T06:58:27.527Z,4.45
2018-12-04T07:00:56.817Z,4.05
2018-12-04T07:03:25.979Z,3.55
2018-12-04T07:05:56.067Z,3.33
2018-12-04T07:08:25.339Z,4.60
2018-12-04T07:10:54.614Z,2.80
2018-12-04T07:13:23.782Z,5.37
2018-12-04T07:15:52.977Z,2.05
2018-12-04T07:18:22.155Z,3.95
2018-12-04T07:20:51.330Z,1.65
2018-12-04T07:23:20.514Z,2.33
2018-12-04T07:25:49.701Z,3.33
2018-12-04T07:28:18.873Z,4.05
2018-12-04T07:30:48.059Z,1.70
2018-12-04T07:33:17.314Z,3.58
2018-12-04T07:35:46.582Z,2.33
2018-12-04T07:38:15.863Z,3.00
2018-12-04T07:40:45.072Z,3.33
2018-12-04T07:43:14.239Z,3.08
2018-12-04T07:45:43.428Z,2.83
2018-12-04T07:48:12.596Z,3.02
2018-12-04T07:50:44.879Z,4.12
2018-12-04T07:53:14.148Z,2.77
2018-12-04T07:55:45.653Z,2.33
2018-12-04T07:58:15.766Z,2.85
2018-12-04T08:00:45.180Z,6.65
2018-12-04T08:03:14.379Z,2.65
2018-12-04T08:05:43.563Z,4.22
2018-12-04T08:08:12.742Z,1.77
2018-12-04T08:10:41.929Z,3.67
2018-12-04T08:13:11.095Z,5.00
2018-12-04T08:15:40.411Z,2.47
2018-12-04T08:18:09.584Z,4.92
2018-12-04T08:20:38.766Z,1.50
2018-12-04T08:23:07.942Z,3.17
2018-12-04T08:25:37.181Z,4.37
2018-12-04T08:28:06.374Z,3.00
2018-12-04T08:30:35.545Z,3.20
2018-12-04T08:33:04.888Z,2.05
2018-12-04T08:35:34.099Z,2.22
2018-12-04T08:38:03.379Z,3.42
2018-12-04T08:40:32.587Z,2.72
2018-12-04T08:43:01.783Z,3.15
2018-12-04T08:45:30.947Z,1.98
2018-12-04T08:48:00.169Z,1.30
2018-12-04T08:50:29.478Z,2.40
2018-12-04T08:52:58.681Z,1.95
2018-12-04T08:55:27.953Z,2.95
2018-12-04T08:57:57.133Z,1.52
2018-12-04T09:00:26.380Z,1.57
2018-12-04T09:02:55.655Z,3.37
2018-12-04T09:05:25.808Z,1.72
2018-12-04T09:07:55.074Z,2.12
2018-12-04T09:10:24.293Z,2.22
2018-12-04T09:12:53.566Z,2.40
2018-12-04T09:15:23.279Z,4.17
2018-12-04T09:17:52.551Z,2.52
2018-12-04T09:20:21.803Z,1.47
2018-12-04T09:22:51.060Z,4.00
2018-12-04T09:25:20.381Z,4.55
2018-12-04T09:27:49.702Z,1.85
2018-12-04T09:30:18.960Z,2.90
2018-12-04T09:32:48.271Z,0.98
2018-12-04T09:35:17.454Z,3.02
2018-12-04T09:37:46.630Z,3.33
2018-12-04T09:40:15.926Z,1.00
2018-12-04T09:42:45.252Z,3.65
2018-12-04T09:45:14.407Z,3.08
2018-12-04T09:47:43.735Z,3.25
2018-12-04T09:50:13.087Z,1.95
2018-12-04T09:52:42.276Z,3.25
2018-12-04T09:55:11.451Z,3.95
2018-12-04T09:57:40.635Z,2.92
2018-12-04T10:00:10.573Z,1.65
2018-12-04T10:02:39.778Z,1.50
2018-12-04T10:05:09.062Z,2.42
2018-12-04T10:07:38.255Z,2.20
2018-12-04T10:10:12.111Z,1.67
2018-12-04T10:12:41.433Z,3.45
2018-12-04T10:15:10.771Z,3.65
2018-12-04T10:17:39.971Z,3.20
2018-12-04T10:20:11.733Z,3.37
2018-12-04T10:22:40.935Z,2.40
2018-12-04T10:25:10.212Z,4.08
2018-12-04T10:27:39.401Z,4.55
2018-12-04T10:30:10.488Z,2.37
2018-12-04T10:32:39.870Z,4.58
2018-12-04T10:35:09.219Z,2.92
2018-12-04T10:37:38.454Z,2.77
2018-12-04T10:40:08.890Z,6.05
2018-12-04T10:42:38.090Z,13.75
2018-12-04T10:45:08.299Z,5.40
2018-12-04T10:47:37.547Z,3.25
2018-12-04T10:50:08.874Z,3.08
2018-12-04T10:52:38.294Z,2.75
2018-12-04T10:55:07.759Z,2.60
2018-12-04T10:57:36.963Z,2.85
2018-12-04T11:03:13.631Z,3.50
2018-12-04T11:05:43.686Z,8.33
2018-12-04T11:08:12.875Z,3.33
2018-12-04T11:10:42.047Z,8.48
2018-12-04T11:13:11.287Z,5.50
2018-12-04T11:15:40.535Z,6.53
2018-12-04T11:18:09.719Z,4.22
2018-12-04T11:20:38.886Z,3.72
2018-12-04T11:23:08.063Z,4.03
2018-12-04T11:25:37.228Z,5.45
2018-12-04T11:28:06.532Z,6.62
2018-12-04T11:30:35.734Z,1.87
2018-12-04T11:33:05.227Z,2.87
2018-12-04T11:35:34.399Z,2.67
2018-12-04T11:38:03.635Z,5.03
2018-12-04T11:40:32.866Z,3.40
2018-12-04T11:43:02.132Z,2.50
2018-12-04T11:45:31.368Z,3.45
2018-12-04T11:48:00.627Z,3.67
2018-12-04T11:50:29.808Z,3.33
2018-12-04T11:52:59.008Z,3.33
2018-12-04T11:55:28.245Z,2.10
2018-12-04T11:57:57.468Z,2.02
2018-12-04T12:00:32.035Z,4.42
2018-12-04T12:03:01.428Z,3.22
2018-12-04T12:05:30.899Z,4.05
2018-12-04T12:08:00.123Z,2.55
2018-12-04T12:10:29.339Z,3.75
2018-12-04T12:12:58.583Z,2.75
2018-12-04T12:15:27.866Z,4.25
2018-12-04T12:17:57.155Z,5.20
2018-12-04T12:20:26.387Z,4.17
2018-12-04T12:22:55.615Z,3.67
2018-12-04T12:25:24.894Z,3.65
2018-12-04T12:27:54.182Z,2.22
2018-12-04T12:30:23.372Z,4.75
2018-12-04T12:32:52.742Z,4.20
2018-12-04T12:35:22.015Z,3.60
2018-12-04T12:37:51.215Z,3.85
2018-12-04T12:40:20.407Z,4.92
2018-12-04T12:42:50.769Z,3.83
2018-12-04T12:45:20.104Z,3.52
2018-12-04T12:47:49.607Z,3.47
2018-12-04T12:50:18.783Z,5.62
2018-12-04T12:52:48.030Z,4.58
2018-12-04T12:55:17.210Z,4.53
2018-12-04T12:57:46.411Z,2.27
2018-12-04T13:00:15.595Z,3.92
2018-12-04T13:02:44.799Z,3.12
2018-12-04T13:05:14.110Z,5.35
2018-12-04T13:07:43.336Z,2.83
2018-12-04T13:10:12.645Z,2.83
2018-12-04T13:12:41.911Z,3.83
2018-12-04T13:15:11.206Z,2.02
2018-12-04T13:17:40.408Z,2.00
2018-12-04T13:20:09.960Z,2.17
2018-12-04T13:22:39.155Z,5.25
2018-12-04T13:25:08.759Z,3.12
2018-12-04T13:27:37.947Z,5.12
2018-12-04T13:30:09.004Z,2.15
2018-12-04T13:32:38.270Z,2.83
2018-12-04T13:35:07.687Z,7.08
2018-12-04T13:37:36.878Z,6.22
2018-12-04T13:40:08.803Z,3.70
2018-12-04T13:42:38.290Z,4.42
2018-12-04T13:45:08.211Z,4.70
2018-12-04T13:47:37.383Z,5.12
2018-12-04T13:50:06.891Z,2.77
2018-12-04T13:52:36.997Z,4.08
2018-12-04T13:55:06.607Z,5.95
2018-12-04T13:57:35.958Z,5.45
2018-12-04T14:00:06.913Z,2.92
2018-12-04T14:02:36.096Z,3.08
2018-12-04T14:05:08.049Z,2.37
2018-12-04T14:07:37.561Z,2.40
2018-12-04T14:10:09.657Z,3.47
2018-12-04T14:12:38.844Z,3.90
2018-12-04T14:15:08.406Z,2.40
2018-12-04T14:17:37.594Z,5.72
2018-12-04T14:20:09.246Z,3.17
2018-12-04T14:22:38.791Z,3.95
2018-12-04T14:25:08.470Z,3.83
2018-12-04T14:27:37.750Z,3.35
2018-12-04T14:30:11.293Z,4.78
2018-12-04T14:32:40.584Z,4.33
2018-12-04T14:35:09.900Z,3.40
2018-12-04T14:37:39.143Z,6.92
2018-12-04T14:40:09.400Z,4.10
2018-12-04T14:42:38.729Z,4.40
2018-12-04T14:45:08.257Z,3.30
2018-12-04T14:47:38.990Z,3.65
2018-12-04T14:50:09.838Z,6.12
2018-12-04T14:52:39.111Z,2.50
2018-12-04T14:55:09.102Z,3.35
2018-12-04T14:57:38.270Z,2.77
2018-12-04T15:00:10.374Z,5.92
2018-12-04T15:02:39.668Z,2.37
2018-12-04T15:05:10.147Z,6.87
2018-12-04T15:07:39.439Z,7.87
2018-12-04T15:10:11.130Z,4.25
2018-12-04T15:12:40.298Z,4.28
2018-12-04T15:15:16.450Z,3.25
2018-12-04T15:17:45.615Z,4.97
2018-12-04T15:20:14.817Z,4.75
2018-12-04T15:22:43.997Z,3.47
2018-12-04T15:25:13.243Z,3.15
2018-12-04T15:27:42.639Z,4.17
2018-12-04T15:30:12.120Z,4.55
2018-12-04T15:32:41.482Z,8.20
2018-12-04T15:35:10.804Z,2.92
2018-12-04T15:37:40.070Z,3.20
2018-12-04T15:40:09.507Z,6.83
2018-12-04T15:42:38.683Z,9.48
2018-12-04T15:45:08.093Z,9.18
2018-12-04T15:47:37.505Z,6.70
2018-12-04T15:50:08.201Z,8.20
2018-12-04T15:52:37.395Z,4.90
2018-12-04T15:55:07.044Z,3.98
2018-12-04T15:57:36.318Z,2.72
2018-12-04T16:00:09.265Z,3.25
2018-12-04T16:02:38.538Z,5.25
2018-12-04T16:05:09.534Z,4.37
2018-12-04T16:07:38.707Z,4.33
2018-12-04T16:10:13.367Z,2.22
2018-12-04T16:12:42.554Z,5.55
2018-12-04T16:15:11.942Z,4.17
2018-12-04T16:17:41.115Z,5.92
2018-12-04T16:20:10.606Z,7.12
2018-12-04T16:22:39.822Z,5.70
2018-12-04T16:25:10.079Z,6.80
2018-12-04T16:27:39.323Z,3.50
2018-12-04T16:30:10.466Z,3.95
2018-12-04T16:32:39.638Z,5.40
2018-12-04T16:35:09.623Z,4.53
2018-12-04T16:37:38.899Z,6.65
2018-12-04T16:40:09.310Z,5.87
2018-12-04T16:42:38.500Z,9.15
2018-12-04T16:45:08.079Z,5.47
2018-12-04T16:47:37.251Z,6.50
2018-12-04T16:50:07.289Z,5.78
2018-12-04T16:52:36.552Z,7.00
2018-12-04T16:55:07.191Z,9.60
2018-12-04T16:57:36.443Z,8.30
2018-12-04T17:00:08.367Z,7.22
2018-12-04T17:02:37.621Z,5.97
2018-12-04T17:05:07.194Z,7.17
2018-12-04T17:09:00.945Z,8.25
2018-12-04T17:11:30.267Z,8.85
2018-12-04T17:13:59.431Z,6.40
2018-12-04T17:16:28.711Z,6.55
2018-12-04T17:18:58.171Z,6.80
2018-12-04T17:21:27.366Z,6.67
2018-12-04T17:23:56.563Z,4.85
2018-12-04T17:26:25.851Z,7.72
2018-12-04T17:28:55.030Z,8.20
2018-12-04T17:31:24.215Z,6.17
2018-12-04T17:33:55.028Z,6.50
2018-12-04T17:36:24.490Z,6.70
2018-12-04T17:38:53.684Z,8.25
2018-12-04T17:41:22.958Z,8.38
2018-12-04T17:43:52.292Z,7.33
2018-12-04T17:46:21.485Z,8.93
2018-12-04T17:48:50.659Z,5.97
2018-12-04T17:51:19.859Z,6.78
2018-12-04T17:53:49.101Z,6.62
2018-12-04T17:56:18.321Z,10.45
2018-12-04T17:58:47.507Z,21.27
2018-12-04T18:01:16.716Z,29.50
2018-12-04T18:03:46.598Z,25.82
2018-12-04T18:06:15.786Z,10.15
2018-12-04T18:08:45.071Z,12.23
2018-12-04T18:11:14.398Z,10.38
2018-12-04T18:13:43.607Z,17.85
2018-12-04T18:16:12.899Z,25.80
2018-12-04T18:18:42.066Z,14.13
2018-12-04T18:21:11.252Z,10.48
2018-12-04T18:23:40.418Z,9.18
2018-12-04T18:26:09.703Z,11.00
2018-12-04T18:28:39.743Z,9.55
2018-12-04T18:31:09.033Z,10.35
2018-12-04T18:33:41.205Z,9.88
2018-12-04T18:36:10.599Z,7.22
2018-12-04T18:38:39.975Z,7.45
2018-12-04T18:41:09.173Z,4.85
2018-12-04T18:43:38.354Z,6.47
2018-12-04T18:46:07.541Z,7.30
2018-12-04T18:48:36.759Z,10.05
2018-12-04T18:51:06.331Z,11.73
2018-12-04T18:53:36.174Z,12.45
2018-12-04T18:56:05.466Z,10.20
2018-12-04T18:58:34.656Z,11.63
2018-12-04T19:01:03.950Z,13.88
2018-12-04T19:03:33.186Z,8.35
2018-12-04T19:06:02.482Z,8.00
2018-12-04T19:08:37.127Z,10.68
2018-12-04T19:11:07.385Z,7.20
2018-12-04T19:13:36.718Z,7.80
2018-12-04T19:16:06.170Z,10.20
2018-12-04T19:18:35.424Z,7.62
2018-12-04T19:21:04.820Z,6.97
2018-12-04T19:23:34.129Z,7.87
2018-12-04T19:26:03.331Z,11.50
2018-12-04T19:28:32.624Z,12.13
2018-12-04T19:31:02.878Z,18.85
2018-12-04T19:33:32.663Z,14.18
2018-12-04T19:36:03.015Z,12.68
2018-12-04T19:38:32.199Z,11.63
2018-12-04T19:41:01.394Z,9.78
2018-12-04T19:43:30.872Z,13.40
2018-12-04T19:46:00.124Z,9.68
2018-12-04T19:48:29.375Z,11.15
2018-12-04T19:50:58.741Z,13.90
2018-12-04T19:53:28.313Z,12.90
2018-12-04T19:55:57.674Z,8.48
2018-12-04T19:58:27.184Z,9.65
2018-12-04T20:00:56.527Z,11.65
2018-12-04T20:03:28.923Z,10.95
2018-12-04T20:05:58.082Z,13.25
2018-12-04T20:08:31.402Z,14.75
2018-12-04T20:11:00.846Z,11.70
2018-12-04T20:13:30.066Z,14.23
2018-12-04T20:15:59.241Z,23.52
2018-12-04T20:18:28.439Z,19.60
2018-12-04T20:20:57.611Z,17.82
2018-12-04T20:23:26.969Z,14.70
2018-12-04T20:25:56.140Z,13.00
2018-12-04T20:28:25.326Z,11.00
2018-12-04T20:30:54.490Z,14.95
2018-12-04T20:33:23.933Z,12.30
2018-12-04T20:35:53.109Z,11.20
2018-12-04T20:38:22.307Z,12.88
2018-12-04T20:40:51.744Z,13.15
2018-12-04T20:43:20.923Z,10.78
2018-12-04T20:45:50.145Z,9.28
2018-12-04T20:48:19.319Z,13.43
2018-12-04T20:50:48.748Z,12.80
2018-12-04T20:53:17.944Z,10.98
2018-12-04T20:55:47.511Z,10.55
2018-12-04T20:58:16.749Z,9.60
2018-12-04T21:00:46.099Z,9.50
2018-12-04T21:03:15.338Z,12.45
2018-12-04T21:05:44.499Z,11.30
2018-12-04T21:08:13.840Z,11.83
2018-12-04T21:10:43.008Z,11.80
2018-12-04T21:13:14.621Z,11.80
2018-12-04T21:15:43.506Z,12.37
2018-12-04T21:18:12.694Z,12.28
2018-12-04T21:20:41.867Z,13.72
2018-12-04T21:23:11.051Z,9.18
2018-12-04T21:25:40.219Z,11.83
2018-12-04T21:28:14.853Z,12.00
2018-12-04T21:30:49.363Z,13.30
2018-12-04T21:33:23.827Z,11.75
2018-12-04T21:35:58.645Z,12.13
2018-12-04T21:38:33.986Z,10.85
2018-12-04T21:41:09.575Z,9.73
2018-12-04T21:43:44.107Z,9.30
2018-12-04T21:46:18.696Z,11.50
2018-12-04T21:48:48.179Z,10.10
2018-12-04T21:51:17.346Z,10.63
2018-12-04T21:53:46.551Z,12.53
2018-12-04T21:56:15.716Z,13.35
2018-12-04T21:58:44.895Z,8.18
2018-12-04T22:01:14.063Z,10.95
2018-12-04T22:03:43.247Z,8.40
2018-12-04T22:06:12.513Z,10.32
2018-12-04T22:08:41.699Z,12.73
2018-12-04T22:11:10.955Z,11.25
2018-12-04T22:13:40.157Z,9.25
2018-12-04T22:16:09.413Z,9.55
2018-12-04T22:18:38.598Z,8.10
2018-12-04T22:21:07.867Z,9.05
2018-12-04T22:23:37.071Z,8.83
2018-12-04T22:26:06.247Z,11.25
2018-12-04T22:28:35.427Z,7.53
2018-12-04T22:31:04.859Z,9.73
2018-12-04T22:33:34.056Z,7.95
2018-12-04T22:36:03.355Z,10.13
2018-12-04T22:38:32.576Z,10.23
2018-12-04T22:41:01.766Z,6.10
2018-12-04T22:43:30.946Z,9.78
2018-12-04T22:46:00.126Z,10.10
2018-12-04T22:48:29.319Z,12.13
2018-12-04T22:50:58.485Z,9.93
2018-12-04T22:53:27.763Z,10.48
2018-12-04T22:55:56.943Z,9.50
2018-12-04T22:58:26.127Z,9.73
2018-12-04T23:00:55.518Z,7.28
2018-12-04T23:03:24.807Z,10.32
2018-12-04T23:05:54.082Z,11.50
2018-12-04T23:08:23.279Z,12.65
2018-12-04T23:10:52.548Z,16.48
2018-12-04T23:13:21.767Z,19.62
2018-12-04T23:15:51.042Z,12.93
2018-12-04T23:18:20.338Z,8.85
2018-12-04T23:20:50.231Z,9.18
2018-12-04T23:23:19.637Z,10.43
2018-12-04T23:25:48.898Z,10.35
2018-12-04T23:28:18.148Z,15.05
2018-12-04T23:30:47.428Z,14.80
2018-12-04T23:33:16.624Z,18.30
2018-12-04T23:35:45.813Z,15.25
2018-12-04T23:38:15.003Z,12.43
2018-12-04T23:40:44.193Z,12.30
2018-12-04T23:43:13.393Z,7.83
2018-12-04T23:45:42.578Z,7.85
2018-12-04T23:48:11.828Z,11.63
2018-12-04T23:50:41.544Z,16.82
2018-12-04T23:53:11.076Z,14.43
2018-12-04T23:55:53.659Z,7.83
2018-12-04T23:58:22.856Z,11.80
